This is the latest recevied weather packets stored in our database for station/object KR8N. If no packets are shown the sender has not sent any weather packets the latest 10 day(s).
| Time | Temp. | Humidity | Pressure | Rain* | Wind** | Luminosity | Snow |
|---|---|---|---|---|---|---|---|
| 1777396336 | 20.56° C | 61% | 1019.6 hPa | 0 mm | - | 645 W/m² | - |
| 1777396032 | 20.56° C | 63% | 1020 hPa | 0 mm | - | 1039 W/m² | - |
| 1777395727 | 20.56° C | 61% | 1020.1 hPa | 0 mm | - | 460 W/m² | - |
| 1777395423 | 21.67° C | 58% | 1019.9 hPa | 0 mm | - | 302 W/m² | - |
| 1777395121 | 21.11° C | 61% | 1019.9 hPa | 0 mm | - | 1152 W/m² | - |
| 1777394818 | 21.11° C | 60% | 1019.7 hPa | 0 mm | - | 461 W/m² | - |
| 1777394514 | 20.56° C | 60% | 1019.9 hPa | 0 mm | - | 270 W/m² | - |
| 1777394211 | 21.11° C | 58% | 1020 hPa | 0 mm | - | 381 W/m² | - |
| 1777393906 | 21.11° C | 62% | 1020 hPa | 0 mm | - | 372 W/m² | - |
| 1777393605 | 21.11° C | 61% | 1020.2 hPa | 0 mm | - | 432 W/m² | - |
| 1777393301 | 20.56° C | 64% | 1020 hPa | 0 mm | - | 421 W/m² | - |
| 1777392998 | 21.11° C | 60% | 1020.1 hPa | 0 mm | - | 655 W/m² | - |
| 1777392693 | 20.56° C | 64% | 1020.4 hPa | 0 mm | - | 664 W/m² | - |
| 1777392391 | 21.11° C | 61% | 1020.3 hPa | 0 mm | - | 461 W/m² | - |
| 1777392086 | 20.56° C | 64% | 1020 hPa | 0 mm | - | 556 W/m² | - |
| 1777391780 | 20° C | 62% | 1020.2 hPa | 0 mm | - | 523 W/m² | - |
| 1777391477 | 20° C | 62% | 1020 hPa | 0 mm | - | 431 W/m² | - |
| 1777391173 | 20.56° C | 62% | 1020 hPa | 0 mm | - | 575 W/m² | - |
| 1777390869 | 20.56° C | 61% | 1020.1 hPa | 0 mm | - | 376 W/m² | - |
| 1777390567 | 20.56° C | 63% | 1019.9 hPa | 0 mm | - | 597 W/m² | - |
| 1777390263 | 19.44° C | 66% | 1020.1 hPa | 0 mm | - | 689 W/m² | - |
| 1777389959 | 18.89° C | 67% | 1020 hPa | 0 mm | - | 384 W/m² | - |
| 1777389655 | 18.89° C | 66% | 1019.9 hPa | 0 mm | - | 302 W/m² | - |
| 1777389352 | 19.44° C | 64% | 1019.9 hPa | 0 mm | - | 282 W/m² | - |
| 1777389050 | 19.44° C | 65% | 1019.7 hPa | 0 mm | - | 325 W/m² | - |
* Rain latest hour (hover to see other rain measurements)
** Current wind speed in m/s (hover to see current wind gust speed)